Time;durP1;ratioP1;P1;durP2;ratioP2;P2;SDS_P1;SDS_P2;PMS_P1;PMS_P2;Temp;Humidity;BMP_temperature;BMP_pressure;BME280_temperature;BME280_humidity;BME280_pressure;Samples;Min_cycle;Max_cycle;Signal;HPM_P1;HPM_P2
2023/07/07 00:02:21;;;;;;;24.45;7.72;;;;;;;;;;5031301;28;20025;-56
2023/07/07 00:04:48;;;;;;;35.13;9.45;;;;;;;;;;5031464;28;20061;-56
2023/07/07 00:07:15;;;;;;;30.02;8.40;;;;;;;;;;5031169;28;20495;-56
2023/07/07 00:09:42;;;;;;;32.60;8.70;;;;;;;;;;5031378;28;20048;-53
2023/07/07 00:12:09;;;;;;;25.20;8.60;;;;;;;;;;5030882;28;20041;-54
2023/07/07 00:14:36;;;;;;;42.78;9.63;;;;;;;;;;5031197;28;20025;-56
2023/07/07 00:17:03;;;;;;;34.67;9.60;;;;;;;;;;5030971;28;20029;-53
2023/07/07 00:19:34;;;;;;;38.83;9.07;;;;;;;;;;5031121;28;20044;-54
2023/07/07 00:22:05;;;;;;;41.45;9.32;;;;;;;;;;5030768;28;20046;-53
2023/07/07 00:24:33;;;;;;;46.40;9.73;;;;;;;;;;5031338;28;20064;-52
2023/07/07 00:27:01;;;;;;;34.88;9.57;;;;;;;;;;5027762;28;20034;-55
2023/07/07 00:29:28;;;;;;;39.28;10.07;;;;;;;;;;5031227;28;20025;-54
2023/07/07 00:31:55;;;;;;;40.00;10.02;;;;;;;;;;5030984;28;20033;-55
2023/07/07 00:34:22;;;;;;;38.38;9.35;;;;;;;;;;5031158;28;20037;-56
2023/07/07 00:36:49;;;;;;;44.90;10.05;;;;;;;;;;5030882;28;20029;-52
2023/07/07 00:39:16;;;;;;;40.50;9.70;;;;;;;;;;5030862;28;20399;-56
2023/07/07 00:41:43;;;;;;;36.15;9.60;;;;;;;;;;5030853;28;20041;-57
2023/07/07 00:44:11;;;;;;;32.50;8.60;;;;;;;;;;5030966;28;20064;-52
2023/07/07 00:46:39;;;;;;;31.73;8.15;;;;;;;;;;5030979;28;20043;-58
2023/07/07 00:49:10;;;;;;;31.63;9.07;;;;;;;;;;5030850;28;20029;-53
2023/07/07 00:51:43;;;;;;;31.02;8.88;;;;;;;;;;5031016;28;20028;-58
2023/07/07 00:54:14;;;;;;;40.08;9.68;;;;;;;;;;5030611;28;20029;-55
2023/07/07 00:56:44;;;;;;;32.33;9.05;;;;;;;;;;5030634;28;20556;-59
2023/07/07 00:59:13;;;;;;;39.78;9.82;;;;;;;;;;5012812;28;20403;-59
2023/07/07 01:01:41;;;;;;;44.65;10.55;;;;;;;;;;5034320;28;20033;-58
2023/07/07 01:04:10;;;;;;;53.92;9.82;;;;;;;;;;5033723;28;20549;-58
2023/07/07 01:06:40;;;;;;;52.97;9.38;;;;;;;;;;5034092;28;20444;-59
2023/07/07 01:09:11;;;;;;;37.10;8.55;;;;;;;;;;5034124;28;20072;-54
2023/07/07 01:11:39;;;;;;;43.88;9.32;;;;;;;;;;5020383;28;20029;-57
2023/07/07 01:14:12;;;;;;;37.85;9.02;;;;;;;;;;5019806;28;20029;-58
2023/07/07 01:16:58;;;;;;;27.75;9.07;;;;;;;;;;5024434;28;20637;-55
2023/07/07 01:19:45;;;;;;;32.55;8.40;;;;;;;;;;5024650;28;20040;-52
2023/07/07 01:22:36;;;;;;;30.60;9.02;;;;;;;;;;5026290;28;20147;-58
2023/07/07 01:25:21;;;;;;;30.85;9.35;;;;;;;;;;5029340;28;20522;-58
2023/07/07 01:28:07;;;;;;;28.52;8.93;;;;;;;;;;5029054;28;20037;-53
2023/07/07 01:30:44;;;;;;;26.95;8.63;;;;;;;;;;5018171;28;20502;-59
2023/07/07 01:33:13;;;;;;;30.60;8.18;;;;;;;;;;5025737;28;20490;-58
2023/07/07 01:35:40;;;;;;;22.58;8.10;;;;;;;;;;5025114;28;20033;-53
2023/07/07 01:38:07;;;;;;;21.38;7.93;;;;;;;;;;5025463;28;20042;-57
2023/07/07 01:40:48;;;;;;;29.30;8.30;;;;;;;;;;5024444;28;20065;-57
2023/07/07 01:43:21;;;;;;;23.05;7.53;;;;;;;;;;5023895;28;20033;-57
2023/07/07 01:45:55;;;;;;;27.73;8.25;;;;;;;;;;5024103;28;20033;-56
2023/07/07 01:48:43;;;;;;;21.23;7.43;;;;;;;;;;5032166;28;20415;-54
2023/07/07 01:51:11;;;;;;;23.00;7.40;;;;;;;;;;4993606;28;20044;-55
2023/07/07 01:53:40;;;;;;;24.25;7.68;;;;;;;;;;5033540;28;20021;-56
2023/07/07 01:56:09;;;;;;;22.67;7.70;;;;;;;;;;5033646;28;20037;-54
2023/07/07 01:58:36;;;;;;;21.95;7.65;;;;;;;;;;5033395;28;20893;-53
2023/07/07 02:01:04;;;;;;;23.50;7.70;;;;;;;;;;5033481;28;20029;-57
2023/07/07 02:03:31;;;;;;;21.77;7.78;;;;;;;;;;5033479;28;20029;-56
2023/07/07 02:05:58;;;;;;;18.88;7.25;;;;;;;;;;5033275;28;20029;-57
2023/07/07 02:08:25;;;;;;;20.70;8.15;;;;;;;;;;5033313;28;20052;-52
2023/07/07 02:10:52;;;;;;;22.20;7.25;;;;;;;;;;5033091;28;20033;-58
2023/07/07 02:13:19;;;;;;;18.23;7.10;;;;;;;;;;5015345;28;20022;-57
2023/07/07 02:15:47;;;;;;;20.30;7.13;;;;;;;;;;5033350;28;20022;-59
2023/07/07 02:18:14;;;;;;;20.60;7.28;;;;;;;;;;5033012;28;20033;-57
2023/07/07 02:20:41;;;;;;;16.95;7.22;;;;;;;;;;5032736;28;20062;-57
2023/07/07 02:23:08;;;;;;;21.73;7.53;;;;;;;;;;5033061;28;20029;-59
2023/07/07 02:25:35;;;;;;;16.67;6.78;;;;;;;;;;5033121;28;20518;-58
2023/07/07 02:28:02;;;;;;;14.30;7.10;;;;;;;;;;5032551;28;20029;-57
2023/07/07 02:30:30;;;;;;;14.80;6.78;;;;;;;;;;5032986;28;20060;-58
2023/07/07 02:32:57;;;;;;;17.25;7.18;;;;;;;;;;5032337;28;20041;-58
2023/07/07 02:35:24;;;;;;;16.20;6.68;;;;;;;;;;5032624;28;20030;-59
2023/07/07 02:37:51;;;;;;;12.40;6.43;;;;;;;;;;5032709;28;20491;-58
2023/07/07 02:40:18;;;;;;;16.95;6.18;;;;;;;;;;5032809;28;20033;-59
2023/07/07 02:42:46;;;;;;;17.40;6.68;;;;;;;;;;5032589;28;20097;-57
2023/07/07 02:45:14;;;;;;;15.75;6.63;;;;;;;;;;5032676;28;20030;-58
2023/07/07 02:47:41;;;;;;;13.02;6.07;;;;;;;;;;5032381;28;20042;-58
2023/07/07 02:50:08;;;;;;;14.50;6.30;;;;;;;;;;5032471;28;20502;-57
2023/07/07 02:52:37;;;;;;;12.38;6.22;;;;;;;;;;5032584;28;20061;-58
2023/07/07 02:55:04;;;;;;;15.20;6.72;;;;;;;;;;5032293;28;20029;-58
2023/07/07 02:57:31;;;;;;;16.98;7.03;;;;;;;;;;5032110;28;20064;-58
2023/07/07 02:59:58;;;;;;;14.90;6.50;;;;;;;;;;5032426;28;20033;-58
2023/07/07 03:02:25;;;;;;;15.23;6.40;;;;;;;;;;5032412;28;20368;-59
2023/07/07 03:04:53;;;;;;;12.88;5.85;;;;;;;;;;5032353;28;20155;-58
2023/07/07 03:07:20;;;;;;;15.02;6.15;;;;;;;;;;5031956;28;20029;-57
2023/07/07 03:09:48;;;;;;;13.13;5.95;;;;;;;;;;5032206;28;20482;-58
2023/07/07 03:12:15;;;;;;;14.70;6.00;;;;;;;;;;5032130;28;20025;-58
2023/07/07 03:14:42;;;;;;;13.85;6.28;;;;;;;;;;5032211;28;20111;-57
2023/07/07 03:17:09;;;;;;;14.45;6.40;;;;;;;;;;5032045;28;20037;-58
2023/07/07 03:19:36;;;;;;;14.68;6.55;;;;;;;;;;5031782;28;20399;-57
2023/07/07 03:22:04;;;;;;;12.43;6.68;;;;;;;;;;5031832;28;20052;-58
2023/07/07 03:24:31;;;;;;;14.48;6.20;;;;;;;;;;5031987;28;20491;-58
2023/07/07 03:26:58;;;;;;;13.20;5.90;;;;;;;;;;5031904;28;20594;-57
2023/07/07 03:29:25;;;;;;;10.63;6.03;;;;;;;;;;5031826;28;20487;-58
2023/07/07 03:31:53;;;;;;;15.30;5.82;;;;;;;;;;5031967;28;20031;-57
2023/07/07 03:34:20;;;;;;;11.98;6.30;;;;;;;;;;5031845;28;20799;-57
2023/07/07 03:36:48;;;;;;;9.63;5.68;;;;;;;;;;5031753;28;20026;-58
2023/07/07 03:39:15;;;;;;;10.50;6.20;;;;;;;;;;5031567;28;20041;-58
2023/07/07 03:41:42;;;;;;;13.77;6.18;;;;;;;;;;5031679;28;20560;-58
2023/07/07 03:44:09;;;;;;;12.82;6.10;;;;;;;;;;5031670;28;20053;-58
2023/07/07 03:46:36;;;;;;;10.73;5.90;;;;;;;;;;5031638;28;20028;-57
2023/07/07 03:49:03;;;;;;;11.70;5.20;;;;;;;;;;5031568;28;20037;-59
2023/07/07 03:51:34;;;;;;;11.27;6.18;;;;;;;;;;5031701;28;20098;-58
2023/07/07 03:54:01;;;;;;;12.13;5.80;;;;;;;;;;5031515;28;20029;-58
2023/07/07 03:56:28;;;;;;;15.85;6.63;;;;;;;;;;5031506;28;20033;-59
2023/07/07 03:58:55;;;;;;;9.40;5.72;;;;;;;;;;5031499;28;20423;-58
2023/07/07 04:01:22;;;;;;;11.85;5.85;;;;;;;;;;5031640;28;20022;-58
2023/07/07 04:03:50;;;;;;;12.23;6.10;;;;;;;;;;5031626;28;20021;-58
2023/07/07 04:06:18;;;;;;;9.70;5.50;;;;;;;;;;5031431;28;20029;-58
2023/07/07 04:08:45;;;;;;;7.80;5.35;;;;;;;;;;5031380;28;20405;-58
2023/07/07 04:11:12;;;;;;;11.68;6.05;;;;;;;;;;5031640;28;20426;-58
2023/07/07 04:13:40;;;;;;;9.65;5.65;;;;;;;;;;5031577;28;20398;-57
2023/07/07 04:16:13;;;;;;;8.27;5.40;;;;;;;;;;5031393;28;20029;-58
2023/07/07 04:18:41;;;;;;;9.98;5.57;;;;;;;;;;5031339;28;20036;-58
2023/07/07 04:21:09;;;;;;;10.40;5.68;;;;;;;;;;5031115;28;20041;-58
2023/07/07 04:23:37;;;;;;;10.02;5.55;;;;;;;;;;5031389;28;20028;-58
2023/07/07 04:26:05;;;;;;;8.77;5.13;;;;;;;;;;5031376;28;20057;-58
2023/07/07 04:28:33;;;;;;;9.05;5.53;;;;;;;;;;5031436;28;20061;-58
2023/07/07 04:31:00;;;;;;;8.57;5.65;;;;;;;;;;5031515;28;20083;-58
2023/07/07 04:33:28;;;;;;;9.18;5.18;;;;;;;;;;5031218;28;20506;-58
2023/07/07 04:35:56;;;;;;;8.18;5.10;;;;;;;;;;5033981;28;20026;-57
2023/07/07 04:38:30;;;;;;;8.50;5.60;;;;;;;;;;5035046;28;20387;-58
2023/07/07 04:41:08;;;;;;;8.98;5.85;;;;;;;;;;5035027;28;20108;-58
2023/07/07 04:43:35;;;;;;;7.80;5.32;;;;;;;;;;5035160;28;20391;-57
2023/07/07 04:46:03;;;;;;;8.82;5.20;;;;;;;;;;5034897;28;20433;-58
2023/07/07 04:48:30;;;;;;;7.28;4.82;;;;;;;;;;5035048;28;20032;-58
2023/07/07 04:50:58;;;;;;;9.23;5.30;;;;;;;;;;5034983;28;20025;-59
2023/07/07 04:53:27;;;;;;;9.88;5.25;;;;;;;;;;5034962;28;20060;-58
2023/07/07 04:55:54;;;;;;;8.88;5.05;;;;;;;;;;5034754;28;20148;-59
2023/07/07 04:58:21;;;;;;;10.30;5.50;;;;;;;;;;5034738;28;20120;-58
2023/07/07 05:00:48;;;;;;;9.38;5.35;;;;;;;;;;5034764;28;20029;-55
2023/07/07 05:03:15;;;;;;;7.93;5.18;;;;;;;;;;5034799;28;20487;-57
2023/07/07 05:05:42;;;;;;;8.88;4.78;;;;;;;;;;5034638;28;20053;-56
2023/07/07 05:08:09;;;;;;;10.07;5.25;;;;;;;;;;5034495;28;20037;-55
2023/07/07 05:10:36;;;;;;;9.63;4.78;;;;;;;;;;5034626;28;20079;-55
2023/07/07 05:13:03;;;;;;;7.28;5.22;;;;;;;;;;5034555;28;20036;-56
2023/07/07 05:15:30;;;;;;;7.00;5.15;;;;;;;;;;5034554;28;20026;-57
2023/07/07 05:17:57;;;;;;;7.28;5.00;;;;;;;;;;5034325;28;20025;-56
2023/07/07 05:20:24;;;;;;;7.93;4.82;;;;;;;;;;5016427;28;20506;-58
2023/07/07 05:22:51;;;;;;;7.82;5.05;;;;;;;;;;5034199;28;20053;-54
2023/07/07 05:25:19;;;;;;;7.75;4.82;;;;;;;;;;5034374;28;20033;-57
2023/07/07 05:27:46;;;;;;;7.93;5.07;;;;;;;;;;5034073;28;20048;-57
2023/07/07 05:30:13;;;;;;;7.80;5.05;;;;;;;;;;5034310;28;20426;-55
2023/07/07 05:32:40;;;;;;;6.93;4.82;;;;;;;;;;5034280;28;20021;-54
2023/07/07 05:35:07;;;;;;;8.90;4.97;;;;;;;;;;5034103;28;20061;-56
2023/07/07 05:37:34;;;;;;;7.50;4.90;;;;;;;;;;5034058;28;20041;-53
2023/07/07 05:40:01;;;;;;;7.55;5.43;;;;;;;;;;5016277;28;20427;-56
2023/07/07 05:42:29;;;;;;;8.38;5.25;;;;;;;;;;5034013;28;20026;-57
2023/07/07 05:44:56;;;;;;;6.95;4.82;;;;;;;;;;5034011;28;20037;-57
2023/07/07 05:47:23;;;;;;;8.05;5.05;;;;;;;;;;5032487;28;20037;-56
2023/07/07 05:49:53;;;;;;;6.15;5.05;;;;;;;;;;5033883;28;20037;-57
2023/07/07 05:52:21;;;;;;;7.60;5.10;;;;;;;;;;5033795;28;20496;-53
2023/07/07 05:54:48;;;;;;;9.07;4.65;;;;;;;;;;5033635;28;20033;-55
2023/07/07 05:57:15;;;;;;;6.60;4.60;;;;;;;;;;5033655;28;20103;-56
2023/07/07 05:59:42;;;;;;;7.03;5.00;;;;;;;;;;5033703;28;20044;-54
2023/07/07 06:02:11;;;;;;;6.93;4.90;;;;;;;;;;5032357;28;20510;-55
2023/07/07 06:04:38;;;;;;;8.55;4.57;;;;;;;;;;5033773;28;20048;-54
2023/07/07 06:07:05;;;;;;;6.43;4.82;;;;;;;;;;5033540;28;20021;-57
2023/07/07 06:09:32;;;;;;;7.38;4.68;;;;;;;;;;5033492;28;20079;-56
2023/07/07 06:11:59;;;;;;;6.10;4.60;;;;;;;;;;5033537;28;20487;-56
2023/07/07 06:14:26;;;;;;;7.70;4.75;;;;;;;;;;5033455;28;20029;-59
2023/07/07 06:16:53;;;;;;;7.15;4.70;;;;;;;;;;5033381;28;20029;-59
2023/07/07 06:19:20;;;;;;;7.03;4.68;;;;;;;;;;5033291;28;20384;-58
2023/07/07 06:21:47;;;;;;;6.20;4.35;;;;;;;;;;5033114;28;20049;-58
2023/07/07 06:24:14;;;;;;;6.38;4.25;;;;;;;;;;5033351;28;20545;-58
2023/07/07 06:26:41;;;;;;;5.60;4.35;;;;;;;;;;5015344;28;20029;-58
2023/07/07 06:29:08;;;;;;;8.18;4.75;;;;;;;;;;5033208;28;20029;-57
2023/07/07 06:31:35;;;;;;;6.43;4.65;;;;;;;;;;5032667;28;20030;-57
2023/07/07 06:34:02;;;;;;;7.28;4.50;;;;;;;;;;5033017;28;20104;-57
2023/07/07 06:36:29;;;;;;;8.60;4.68;;;;;;;;;;5033027;28;20029;-56
2023/07/07 06:38:56;;;;;;;6.93;4.40;;;;;;;;;;5032902;28;20076;-54
2023/07/07 06:41:24;;;;;;;6.72;4.60;;;;;;;;;;5033211;28;20364;-55
2023/07/07 06:43:53;;;;;;;7.47;4.90;;;;;;;;;;5032765;28;20029;-53
2023/07/07 06:46:22;;;;;;;7.80;4.53;;;;;;;;;;5032882;28;20041;-54
2023/07/07 06:48:49;;;;;;;5.95;4.40;;;;;;;;;;5032813;28;20045;-52
2023/07/07 06:51:16;;;;;;;6.25;4.53;;;;;;;;;;5032733;28;20026;-56
2023/07/07 06:53:43;;;;;;;5.72;4.00;;;;;;;;;;5032483;28;20041;-53
2023/07/07 06:56:10;;;;;;;5.78;4.05;;;;;;;;;;5032578;28;20028;-55
2023/07/07 06:58:38;;;;;;;5.55;4.10;;;;;;;;;;5032153;28;20041;-56
2023/07/07 07:01:05;;;;;;;6.65;4.55;;;;;;;;;;5032453;28;20545;-55
2023/07/07 07:03:32;;;;;;;5.85;3.88;;;;;;;;;;5032585;28;20475;-57
2023/07/07 07:05:59;;;;;;;6.03;4.07;;;;;;;;;;5014496;28;20498;-53
2023/07/07 07:08:26;;;;;;;7.43;4.35;;;;;;;;;;5032586;28;20052;-53
2023/07/07 07:10:53;;;;;;;7.45;4.13;;;;;;;;;;5032350;28;20025;-57
2023/07/07 07:13:20;;;;;;;5.65;4.28;;;;;;;;;;5032347;28;20033;-55
2023/07/07 07:15:47;;;;;;;6.40;4.65;;;;;;;;;;5032241;28;20541;-56
2023/07/07 07:18:15;;;;;;;7.00;4.03;;;;;;;;;;5032239;28;20084;-57
2023/07/07 07:20:42;;;;;;;6.35;4.32;;;;;;;;;;5032099;28;20488;-56
2023/07/07 07:23:09;;;;;;;6.35;4.38;;;;;;;;;;5032188;28;20181;-54
2023/07/07 07:25:36;;;;;;;6.07;4.45;;;;;;;;;;5032182;28;20026;-52
2023/07/07 07:28:03;;;;;;;6.63;4.28;;;;;;;;;;5032053;28;20037;-52
2023/07/07 07:30:30;;;;;;;6.35;4.00;;;;;;;;;;5032049;28;20018;-53
2023/07/07 07:32:58;;;;;;;5.68;4.05;;;;;;;;;;5032042;28;20120;-57
2023/07/07 07:35:25;;;;;;;6.18;4.43;;;;;;;;;;5031972;28;20075;-57
2023/07/07 07:37:52;;;;;;;6.03;4.38;;;;;;;;;;5031833;28;20079;-57
2023/07/07 07:40:22;;;;;;;6.60;4.10;;;;;;;;;;5031986;28;20108;-56
2023/07/07 07:42:50;;;;;;;5.95;4.20;;;;;;;;;;5048181;28;20048;-55
2023/07/07 07:45:18;;;;;;;5.55;4.15;;;;;;;;;;5051757;28;20041;-54
2023/07/07 07:47:45;;;;;;;5.47;4.18;;;;;;;;;;5051588;28;20082;-52
2023/07/07 07:50:13;;;;;;;5.18;3.92;;;;;;;;;;5051734;28;20103;-54
2023/07/07 07:52:40;;;;;;;5.63;4.10;;;;;;;;;;5051682;28;20032;-57
2023/07/07 07:55:07;;;;;;;5.38;4.00;;;;;;;;;;5051663;28;20032;-56
2023/07/07 07:57:34;;;;;;;6.20;4.28;;;;;;;;;;5051555;28;20489;-55
2023/07/07 08:00:01;;;;;;;5.97;4.32;;;;;;;;;;5051453;28;20033;-55
2023/07/07 08:02:28;;;;;;;7.20;4.05;;;;;;;;;;5051593;28;20036;-56
2023/07/07 08:04:55;;;;;;;5.35;4.00;;;;;;;;;;5051574;28;20032;-57
2023/07/07 08:07:22;;;;;;;5.18;3.90;;;;;;;;;;5051448;28;20040;-54
2023/07/07 08:09:49;;;;;;;7.05;4.40;;;;;;;;;;5052307;28;20095;-53
2023/07/07 08:12:17;;;;;;;6.35;4.30;;;;;;;;;;5055638;28;20029;-53
2023/07/07 08:14:44;;;;;;;6.00;4.05;;;;;;;;;;5055576;28;20083;-53
2023/07/07 08:17:13;;;;;;;5.28;3.80;;;;;;;;;;5055486;28;20036;-56
2023/07/07 08:19:41;;;;;;;6.03;4.03;;;;;;;;;;5055456;28;20037;-54
2023/07/07 08:22:19;;;;;;;5.00;3.58;;;;;;;;;;5199719;22;20535;-44
2023/07/07 08:24:47;;;;;;;5.00;3.72;;;;;;;;;;5056733;28;20101;-45
2023/07/07 08:27:15;;;;;;;6.68;4.40;;;;;;;;;;5075671;28;20032;-45
2023/07/07 08:29:42;;;;;;;5.32;4.00;;;;;;;;;;5075354;28;20031;-46
2023/07/07 08:32:10;;;;;;;4.75;3.75;;;;;;;;;;5075213;28;20024;-45
2023/07/07 08:34:38;;;;;;;5.55;3.92;;;;;;;;;;5075223;28;20028;-45
2023/07/07 08:37:05;;;;;;;4.90;3.78;;;;;;;;;;5075058;28;20039;-44
2023/07/07 08:39:33;;;;;;;5.65;3.90;;;;;;;;;;5075050;28;20103;-45
2023/07/07 08:42:02;;;;;;;4.45;3.20;;;;;;;;;;5074562;28;20039;-45
2023/07/07 08:44:31;;;;;;;4.75;3.40;;;;;;;;;;5074890;28;20111;-44
2023/07/07 08:47:10;;;;;;;6.35;3.92;;;;;;;;;;5074958;28;20024;-44
2023/07/07 08:49:43;;;;;;;5.97;3.70;;;;;;;;;;5074871;28;20024;-45
2023/07/07 08:52:18;;;;;;;5.35;4.00;;;;;;;;;;5074783;28;20502;-45
2023/07/07 08:54:50;;;;;;;4.15;3.30;;;;;;;;;;5074889;28;20016;-45
2023/07/07 08:57:18;;;;;;;6.73;4.23;;;;;;;;;;5074775;28;20028;-45
2023/07/07 08:59:45;;;;;;;5.32;3.42;;;;;;;;;;5074475;28;20300;-44
2023/07/07 09:02:18;;;;;;;4.28;3.47;;;;;;;;;;5073782;28;20032;-44
2023/07/07 09:05:03;;;;;;;5.45;3.72;;;;;;;;;;5074676;28;20043;-44
2023/07/07 09:07:33;;;;;;;5.10;3.53;;;;;;;;;;5074044;28;20122;-45
2023/07/07 09:10:12;;;;;;;4.70;3.65;;;;;;;;;;5073876;28;20085;-45
2023/07/07 09:12:42;;;;;;;5.70;3.50;;;;;;;;;;5072899;28;20044;-44
2023/07/07 09:15:12;;;;;;;4.13;3.22;;;;;;;;;;5074456;28;20035;-45
2023/07/07 09:17:44;;;;;;;4.82;3.55;;;;;;;;;;5073036;28;20089;-45
2023/07/07 09:20:13;;;;;;;6.55;3.47;;;;;;;;;;5071281;28;20043;-44
2023/07/07 09:22:43;;;;;;;5.90;3.50;;;;;;;;;;5073169;28;20036;-45
2023/07/07 09:25:10;;;;;;;5.28;3.50;;;;;;;;;;5071075;28;20066;-44
2023/07/07 09:27:39;;;;;;;7.43;3.53;;;;;;;;;;5073613;28;20494;-46
2023/07/07 09:30:29;;;;;;;6.80;3.53;;;;;;;;;;5073779;28;20040;-45
2023/07/07 09:32:56;;;;;;;4.25;3.33;;;;;;;;;;5061477;28;20040;-45
2023/07/07 09:35:27;;;;;;;5.93;3.13;;;;;;;;;;5074161;28;20382;-45
2023/07/07 09:38:09;;;;;;;8.68;3.75;;;;;;;;;;5071692;28;20039;-44
2023/07/07 09:41:03;;;;;;;8.43;3.50;;;;;;;;;;5073729;28;20075;-45
2023/07/07 09:43:30;;;;;;;6.00;3.80;;;;;;;;;;5036331;28;20032;-44
2023/07/07 09:46:05;;;;;;;9.23;3.65;;;;;;;;;;5073814;28;20029;-43
2023/07/07 09:48:35;;;;;;;8.15;3.30;;;;;;;;;;5073604;28;20025;-48
2023/07/07 09:51:09;;;;;;;6.60;3.13;;;;;;;;;;5073791;28;20023;-44
2023/07/07 09:53:37;;;;;;;7.45;3.25;;;;;;;;;;5073763;28;20142;-45
2023/07/07 09:56:04;;;;;;;7.78;3.60;;;;;;;;;;5073719;28;20017;-45
2023/07/07 09:58:38;;;;;;;6.05;3.50;;;;;;;;;;5073446;28;20051;-44
2023/07/07 10:01:05;;;;;;;5.20;3.30;;;;;;;;;;5073552;28;20067;-44
2023/07/07 10:03:44;;;;;;;6.13;3.40;;;;;;;;;;5073609;28;20031;-44
2023/07/07 10:06:31;;;;;;;5.18;3.28;;;;;;;;;;5073379;28;20025;-44
2023/07/07 10:08:59;;;;;;;6.03;3.80;;;;;;;;;;5073320;28;20093;-45
2023/07/07 10:11:34;;;;;;;5.80;3.63;;;;;;;;;;5073374;28;20619;-44
2023/07/07 10:14:02;;;;;;;5.63;3.80;;;;;;;;;;5073430;28;20020;-45
2023/07/07 10:16:32;;;;;;;5.05;3.13;;;;;;;;;;5072648;28;20029;-44
2023/07/07 10:19:07;;;;;;;11.90;4.03;;;;;;;;;;5048253;28;20044;-46
2023/07/07 10:21:34;;;;;;;9.27;4.13;;;;;;;;;;5072015;28;20028;-44
2023/07/07 10:24:02;;;;;;;7.72;4.18;;;;;;;;;;5073053;28;20059;-44
2023/07/07 10:26:29;;;;;;;10.23;4.60;;;;;;;;;;5072938;28;20028;-47
2023/07/07 10:28:58;;;;;;;10.40;4.13;;;;;;;;;;5073001;28;20028;-48
2023/07/07 10:31:26;;;;;;;8.10;3.78;;;;;;;;;;5071588;28;20024;-46
2023/07/07 10:33:57;;;;;;;8.75;4.50;;;;;;;;;;5071975;28;20032;-45
2023/07/07 10:36:25;;;;;;;9.77;4.45;;;;;;;;;;5072176;28;20020;-45
2023/07/07 10:38:57;;;;;;;9.00;4.18;;;;;;;;;;5072512;28;20032;-47
2023/07/07 10:41:27;;;;;;;9.00;4.50;;;;;;;;;;5070962;28;20033;-44
2023/07/07 10:43:55;;;;;;;12.50;4.63;;;;;;;;;;5072393;28;20122;-43
2023/07/07 10:46:22;;;;;;;8.10;4.35;;;;;;;;;;5072575;28;20139;-45
2023/07/07 10:48:49;;;;;;;10.93;5.05;;;;;;;;;;5072512;28;20028;-44
2023/07/07 10:51:16;;;;;;;10.75;4.78;;;;;;;;;;5070900;28;20037;-42
2023/07/07 10:53:49;;;;;;;12.82;4.68;;;;;;;;;;5071816;28;20036;-45
2023/07/07 10:56:25;;;;;;;12.02;4.65;;;;;;;;;;5071989;28;20029;-44
2023/07/07 10:58:59;;;;;;;13.25;5.25;;;;;;;;;;5072018;28;20482;-44
2023/07/07 11:01:31;;;;;;;10.30;5.03;;;;;;;;;;5069703;28;20032;-47
2023/07/07 11:04:17;;;;;;;9.68;4.60;;;;;;;;;;5069062;28;20028;-45
2023/07/07 11:07:02;;;;;;;12.82;5.03;;;;;;;;;;5071601;28;20032;-45
2023/07/07 11:09:47;;;;;;;11.05;5.15;;;;;;;;;;5070864;28;20024;-45
2023/07/07 11:12:14;;;;;;;12.88;6.57;;;;;;;;;;5070764;28;20028;-45
2023/07/07 11:14:41;;;;;;;14.23;5.85;;;;;;;;;;5071452;28;20041;-46
2023/07/07 11:17:17;;;;;;;16.25;6.95;;;;;;;;;;5071906;28;20029;-46
2023/07/07 11:20:13;;;;;;;23.02;6.40;;;;;;;;;;5071010;28;20025;-43
2023/07/07 11:23:06;;;;;;;56.72;7.05;;;;;;;;;;4986591;28;20441;-42
2023/07/07 11:25:52;;;;;;;45.17;7.35;;;;;;;;;;5071446;28;20035;-41
2023/07/07 11:28:19;;;;;;;25.00;6.53;;;;;;;;;;5071316;28;20017;-46
2023/07/07 11:30:53;;;;;;;22.27;7.20;;;;;;;;;;5071263;28;20132;-41
2023/07/07 11:33:27;;;;;;;217.90;15.63;;;;;;;;;;5071584;28;20367;-41
2023/07/07 11:36:12;;;;;;;147.93;12.10;;;;;;;;;;5071283;28;20093;-41
2023/07/07 11:38:59;;;;;;;66.13;10.05;;;;;;;;;;5070984;28;20039;-43
2023/07/07 11:41:37;;;;;;;46.90;9.75;;;;;;;;;;5071181;28;20496;-43
2023/07/07 11:44:10;;;;;;;37.25;8.82;;;;;;;;;;5071029;28;20043;-42
2023/07/07 11:46:43;;;;;;;55.75;10.18;;;;;;;;;;5071296;28;20475;-41
2023/07/07 11:49:35;;;;;;;47.90;19.90;;;;;;;;;;5071310;28;20150;-41
2023/07/07 11:52:05;;;;;;;97.50;14.55;;;;;;;;;;5070868;28;20024;-42
2023/07/07 11:54:40;;;;;;;56.95;12.07;;;;;;;;;;5071229;28;20043;-43
2023/07/07 11:57:33;;;;;;;52.65;11.20;;;;;;;;;;5071200;28;20123;-42
2023/07/07 12:00:18;;;;;;;62.08;11.98;;;;;;;;;;5067592;28;20124;-43
2023/07/07 12:02:48;;;;;;;56.03;10.73;;;;;;;;;;5071002;28;20048;-42
2023/07/07 12:05:23;;;;;;;47.25;10.93;;;;;;;;;;5070995;28;20123;-43
2023/07/07 12:07:55;;;;;;;52.30;11.77;;;;;;;;;;5058495;28;20025;-42
2023/07/07 12:10:22;;;;;;;60.53;12.05;;;;;;;;;;5071071;28;20043;-43
2023/07/07 12:13:04;;;;;;;52.22;11.52;;;;;;;;;;5070983;28;20029;-44
2023/07/07 12:15:33;;;;;;;52.55;11.48;;;;;;;;;;5070860;28;20078;-42
2023/07/07 12:18:18;;;;;;;46.15;11.05;;;;;;;;;;5070777;28;20140;-42
2023/07/07 12:20:56;;;;;;;42.92;10.38;;;;;;;;;;5070843;28;20056;-42
2023/07/07 12:23:29;;;;;;;45.97;11.32;;;;;;;;;;5070606;28;20510;-42
2023/07/07 12:26:11;;;;;;;50.90;11.75;;;;;;;;;;5070730;28;20029;-42
2023/07/07 12:28:38;;;;;;;46.70;11.87;;;;;;;;;;5070825;28;20451;-42
2023/07/07 12:31:05;;;;;;;42.33;11.23;;;;;;;;;;5070645;28;20317;-42
2023/07/07 12:33:40;;;;;;;38.15;11.57;;;;;;;;;;5071019;28;20505;-45
2023/07/07 12:36:08;;;;;;;38.45;11.20;;;;;;;;;;5070594;28;20485;-42
2023/07/07 12:38:36;;;;;;;45.35;10.75;;;;;;;;;;5070479;28;20024;-42
2023/07/07 12:41:10;;;;;;;38.35;10.73;;;;;;;;;;5070870;28;20028;-43
2023/07/07 12:43:39;;;;;;;38.97;10.88;;;;;;;;;;5070605;28;20033;-42
2023/07/07 12:46:16;;;;;;;34.20;10.13;;;;;;;;;;5070769;28;20035;-44
2023/07/07 12:48:48;;;;;;;36.42;10.30;;;;;;;;;;5070242;28;20056;-42
2023/07/07 12:51:18;;;;;;;44.67;10.57;;;;;;;;;;5070245;28;20108;-42
2023/07/07 12:53:47;;;;;;;35.35;9.60;;;;;;;;;;5070276;28;20036;-42
2023/07/07 12:56:14;;;;;;;37.78;9.57;;;;;;;;;;5071668;28;20119;-42
2023/07/07 12:58:43;;;;;;;48.58;10.23;;;;;;;;;;5074237;28;20078;-42
2023/07/07 13:01:26;;;;;;;28.27;7.45;;;;;;;;;;5074163;28;20086;-42
2023/07/07 13:03:59;;;;;;;38.15;8.57;;;;;;;;;;5074202;28;20040;-43
2023/07/07 13:06:26;;;;;;;33.88;8.52;;;;;;;;;;5074012;28;20089;-42
2023/07/07 13:09:21;;;;;;;34.70;8.45;;;;;;;;;;5074016;28;20047;-46
2023/07/07 13:11:53;;;;;;;36.25;8.82;;;;;;;;;;5066615;28;20036;-43
2023/07/07 13:14:41;;;;;;;30.88;8.63;;;;;;;;;;5073799;28;20390;-43
2023/07/07 13:17:26;;;;;;;30.92;8.27;;;;;;;;;;5073678;28;20044;-42
2023/07/07 13:20:04;;;;;;;27.13;7.70;;;;;;;;;;5073516;28;20383;-43
2023/07/07 13:22:43;;;;;;;36.28;8.23;;;;;;;;;;5073525;28;20049;-42
2023/07/07 13:25:30;;;;;;;29.98;8.02;;;;;;;;;;5062100;28;20097;-42
2023/07/07 13:27:57;;;;;;;26.30;7.35;;;;;;;;;;5073569;28;20095;-42
2023/07/07 13:30:41;;;;;;;24.88;7.57;;;;;;;;;;5073477;28;20116;-43
2023/07/07 13:33:19;;;;;;;29.35;7.38;;;;;;;;;;5061021;28;20025;-42
2023/07/07 13:35:50;;;;;;;27.35;7.65;;;;;;;;;;5073600;28;20099;-43
2023/07/07 13:38:18;;;;;;;32.90;8.93;;;;;;;;;;5073628;28;20028;-42
2023/07/07 13:40:45;;;;;;;29.55;7.78;;;;;;;;;;5073368;28;20060;-42
2023/07/07 13:43:21;;;;;;;23.65;7.68;;;;;;;;;;5073545;28;20379;-43
2023/07/07 13:45:48;;;;;;;33.60;7.85;;;;;;;;;;5073397;28;20036;-42
2023/07/07 13:48:19;;;;;;;28.58;6.72;;;;;;;;;;5073317;28;20068;-43
2023/07/07 13:50:46;;;;;;;29.35;7.25;;;;;;;;;;5073229;28;20021;-42
2023/07/07 13:53:13;;;;;;;25.75;6.97;;;;;;;;;;5073390;28;20032;-43
2023/07/07 13:55:42;;;;;;;24.20;6.47;;;;;;;;;;5073221;28;20034;-42
2023/07/07 13:58:20;;;;;;;27.15;6.63;;;;;;;;;;5055141;28;20485;-43
2023/07/07 14:00:55;;;;;;;19.38;6.65;;;;;;;;;;5060948;28;20436;-42
2023/07/07 14:03:22;;;;;;;28.00;6.55;;;;;;;;;;5072923;28;20086;-42
2023/07/07 14:05:53;;;;;;;23.83;6.50;;;;;;;;;;5073151;28;20032;-44
2023/07/07 14:08:22;;;;;;;17.98;5.85;;;;;;;;;;5071836;28;20547;-42
2023/07/07 14:10:50;;;;;;;22.65;5.90;;;;;;;;;;5073037;28;20050;-42
2023/07/07 14:13:22;;;;;;;23.98;6.07;;;;;;;;;;5072865;28;20516;-42
2023/07/07 14:15:55;;;;;;;15.88;5.03;;;;;;;;;;5073062;28;20041;-43
2023/07/07 14:18:24;;;;;;;26.58;5.30;;;;;;;;;;5072745;28;20037;-46
2023/07/07 14:20:52;;;;;;;17.95;4.85;;;;;;;;;;5059839;28;20025;-43
2023/07/07 14:23:20;;;;;;;20.70;4.82;;;;;;;;;;5072607;28;20048;-42
2023/07/07 14:25:48;;;;;;;19.98;4.93;;;;;;;;;;5072577;28;20036;-42
2023/07/07 14:28:17;;;;;;;12.68;4.38;;;;;;;;;;5072369;28;20043;-42
2023/07/07 14:30:49;;;;;;;17.70;3.78;;;;;;;;;;5072652;28;20034;-42
2023/07/07 14:33:18;;;;;;;20.73;4.30;;;;;;;;;;5072759;28;20803;-43
2023/07/07 14:35:48;;;;;;;10.75;3.47;;;;;;;;;;5072597;28;20098;-43
2023/07/07 14:38:34;;;;;;;15.32;3.67;;;;;;;;;;5072531;28;20048;-42
2023/07/07 14:41:09;;;;;;;16.65;3.92;;;;;;;;;;5072241;28;20063;-44
2023/07/07 14:43:41;;;;;;;13.02;3.70;;;;;;;;;;5072705;28;20044;-43
2023/07/07 14:46:11;;;;;;;11.75;3.00;;;;;;;;;;5072303;28;20036;-43
2023/07/07 14:48:47;;;;;;;11.88;2.95;;;;;;;;;;5072663;28;20416;-43
2023/07/07 14:51:16;;;;;;;7.68;2.90;;;;;;;;;;5072536;28;20044;-45
2023/07/07 14:53:43;;;;;;;8.75;2.78;;;;;;;;;;5072425;28;20074;-44